createdAt,value
2019-03-22T00:01:26.337Z,56.30
2019-03-22T00:03:55.801Z,56.60
2019-03-22T00:06:25.474Z,56.80
2019-03-22T00:08:55.001Z,57.70
2019-03-22T00:11:24.446Z,57.60
2019-03-22T00:14:03.210Z,57.70
2019-03-22T00:16:32.872Z,57.80
2019-03-22T00:19:02.314Z,57.90
2019-03-22T00:21:31.913Z,57.80
2019-03-22T00:24:01.709Z,58.70
2019-03-22T00:26:32.542Z,58.90
2019-03-22T00:29:02.302Z,58.90
2019-03-22T00:31:31.746Z,59.10
2019-03-22T00:34:01.565Z,58.90
2019-03-22T00:36:31.243Z,59.20
2019-03-22T00:39:01.000Z,59.20
2019-03-22T00:41:30.893Z,58.90
2019-03-22T00:44:00.577Z,58.90
2019-03-22T00:46:30.085Z,59.20
2019-03-22T00:48:59.592Z,59.00
2019-03-22T00:51:29.441Z,59.30
2019-03-22T00:53:58.945Z,59.10
2019-03-22T00:56:28.449Z,59.40
2019-03-22T00:58:58.056Z,59.40
2019-03-22T01:01:28.659Z,59.80
2019-03-22T01:03:58.175Z,59.60
2019-03-22T01:06:28.063Z,59.70
2019-03-22T01:08:57.894Z,59.60
2019-03-22T01:11:27.409Z,59.40
2019-03-22T01:13:56.945Z,59.80
2019-03-22T01:16:26.718Z,59.80
2019-03-22T01:18:56.255Z,60.00
2019-03-22T01:21:26.141Z,60.10
2019-03-22T01:23:55.584Z,60.80
2019-03-22T01:26:25.022Z,60.30
2019-03-22T01:28:54.959Z,61.10
2019-03-22T01:31:24.881Z,60.20
2019-03-22T01:33:54.690Z,60.60
2019-03-22T01:36:24.346Z,60.50
2019-03-22T01:38:54.201Z,60.20
2019-03-22T01:41:35.990Z,60.30
2019-03-22T01:44:05.576Z,60.70
2019-03-22T01:46:35.081Z,61.40
2019-03-22T01:49:04.847Z,62.00
2019-03-22T01:51:34.729Z,62.10
2019-03-22T01:54:04.388Z,62.80
2019-03-22T01:56:33.915Z,62.20
2019-03-22T01:59:03.752Z,62.10
2019-03-22T02:01:33.258Z,62.10
2019-03-22T02:04:03.486Z,62.50
2019-03-22T02:06:34.537Z,61.90
2019-03-22T02:09:06.318Z,62.90
2019-03-22T02:11:36.124Z,63.10
2019-03-22T02:14:05.565Z,63.40
2019-03-22T02:16:35.155Z,64.60
2019-03-22T02:19:04.763Z,64.00
2019-03-22T02:21:35.015Z,63.80
2019-03-22T02:24:04.956Z,64.30
2019-03-22T02:26:34.557Z,64.40
2019-03-22T02:29:04.204Z,65.00
2019-03-22T02:31:34.076Z,65.30
2019-03-22T02:34:03.859Z,65.60
2019-03-22T02:36:33.342Z,65.10
2019-03-22T02:39:02.862Z,65.00
2019-03-22T02:41:32.419Z,65.70
2019-03-22T02:44:01.951Z,66.20
2019-03-22T02:46:31.811Z,65.90
2019-03-22T02:49:01.380Z,66.30
2019-03-22T02:51:30.888Z,65.90
2019-03-22T02:54:00.415Z,65.50
2019-03-22T02:56:30.019Z,65.00
2019-03-22T02:58:59.657Z,65.50
2019-03-22T03:01:29.362Z,65.60
2019-03-22T03:04:18.235Z,65.30
2019-03-22T03:06:48.840Z,65.20
2019-03-22T03:09:18.759Z,65.40
2019-03-22T03:11:48.431Z,65.50
2019-03-22T03:14:18.393Z,65.70
2019-03-22T03:16:47.900Z,65.60
2019-03-22T03:19:17.505Z,65.80
2019-03-22T03:21:46.950Z,66.00
2019-03-22T03:24:16.701Z,66.20
2019-03-22T03:26:48.021Z,66.40
2019-03-22T03:29:17.449Z,67.00
2019-03-22T03:31:47.279Z,67.60
2019-03-22T03:34:17.149Z,68.50
2019-03-22T03:36:47.095Z,68.00
2019-03-22T03:39:16.916Z,67.40
2019-03-22T03:41:46.529Z,67.60
2019-03-22T03:44:16.171Z,67.90
2019-03-22T03:46:45.682Z,68.80
2019-03-22T03:49:15.225Z,68.50
2019-03-22T03:51:46.287Z,68.70
2019-03-22T03:54:15.800Z,67.60
2019-03-22T03:56:45.399Z,67.40
2019-03-22T03:59:15.058Z,69.40
2019-03-22T04:01:44.904Z,68.60
2019-03-22T04:04:14.440Z,69.80
2019-03-22T04:06:44.022Z,69.30
2019-03-22T04:09:14.748Z,70.00
2019-03-22T04:11:44.553Z,69.70
2019-03-22T04:14:13.997Z,70.20
2019-03-22T04:16:43.870Z,70.70
2019-03-22T04:19:14.946Z,70.70
2019-03-22T04:21:44.498Z,70.30
2019-03-22T04:24:14.006Z,72.30
2019-03-22T04:26:43.566Z,72.70
2019-03-22T04:29:13.442Z,72.60
2019-03-22T04:32:02.631Z,72.40
2019-03-22T04:34:32.146Z,72.20
2019-03-22T04:37:02.026Z,72.90
2019-03-22T04:39:31.622Z,74.00
2019-03-22T04:42:01.448Z,73.20
2019-03-22T04:44:30.966Z,72.40
2019-03-22T04:47:02.090Z,71.90
2019-03-22T04:49:34.605Z,72.30
2019-03-22T04:52:04.800Z,72.00
2019-03-22T04:54:37.121Z,72.50
2019-03-22T04:57:09.073Z,74.10
2019-03-22T04:59:40.849Z,73.70
2019-03-22T05:02:10.814Z,75.30
2019-03-22T05:04:41.883Z,75.30
2019-03-22T05:07:12.693Z,73.80
2019-03-22T05:09:43.657Z,74.30
2019-03-22T05:12:16.522Z,74.40
2019-03-22T05:14:46.704Z,75.00
2019-03-22T05:17:16.517Z,77.90
2019-03-22T05:19:49.110Z,77.50
2019-03-22T05:22:19.353Z,78.10
2019-03-22T05:24:49.031Z,79.80
2019-03-22T05:27:19.692Z,79.60
2019-03-22T05:29:50.294Z,78.80
2019-03-22T05:32:19.819Z,78.20
2019-03-22T05:34:49.265Z,77.60
2019-03-22T05:37:18.705Z,77.80
2019-03-22T05:39:48.243Z,77.70
2019-03-22T05:42:17.680Z,77.30
2019-03-22T05:44:47.190Z,77.10
2019-03-22T05:47:16.998Z,76.90
2019-03-22T05:49:46.510Z,77.30
2019-03-22T05:52:16.033Z,78.00
2019-03-22T05:54:45.570Z,77.20
2019-03-22T05:57:15.153Z,77.20
2019-03-22T05:59:44.949Z,77.40
2019-03-22T06:02:14.877Z,78.50
2019-03-22T06:04:44.452Z,78.80
2019-03-22T06:07:13.969Z,78.90
2019-03-22T06:09:43.947Z,79.00
2019-03-22T06:12:13.829Z,78.10
2019-03-22T06:14:44.468Z,78.20
2019-03-22T06:17:14.122Z,78.50
2019-03-22T06:19:43.632Z,77.90
2019-03-22T06:22:13.213Z,79.00
2019-03-22T06:24:42.760Z,78.00
2019-03-22T06:27:12.194Z,77.60
2019-03-22T06:29:53.308Z,78.00
2019-03-22T06:32:14.187Z,77.70
2019-03-22T06:34:43.770Z,77.80
2019-03-22T06:37:13.361Z,77.50
2019-03-22T06:39:43.128Z,77.00
2019-03-22T06:42:12.829Z,76.80
2019-03-22T06:44:42.274Z,76.80
2019-03-22T06:47:11.882Z,75.80
2019-03-22T06:49:41.468Z,76.70
2019-03-22T06:52:11.041Z,76.60
2019-03-22T06:54:40.734Z,76.70
2019-03-22T06:57:10.538Z,75.70
2019-03-22T06:59:40.043Z,76.70
2019-03-22T07:02:09.892Z,76.10
2019-03-22T07:04:39.404Z,75.90
2019-03-22T07:07:08.913Z,75.30
2019-03-22T07:09:38.382Z,75.00
2019-03-22T07:12:08.042Z,74.60
2019-03-22T07:14:37.628Z,74.40
2019-03-22T07:17:07.766Z,74.80
2019-03-22T07:19:37.293Z,74.20
2019-03-22T07:22:06.812Z,74.30
2019-03-22T07:24:36.429Z,73.90
2019-03-22T07:27:06.322Z,73.90
2019-03-22T07:29:35.972Z,73.60
2019-03-22T07:32:05.500Z,73.20
2019-03-22T07:34:34.949Z,72.60
2019-03-22T07:37:04.533Z,72.40
2019-03-22T07:39:34.163Z,72.30
2019-03-22T07:42:03.814Z,72.40
2019-03-22T07:44:33.457Z,72.00
2019-03-22T07:47:02.925Z,71.60
2019-03-22T07:49:32.586Z,71.80
2019-03-22T07:52:02.210Z,71.80
2019-03-22T07:54:31.860Z,72.00
2019-03-22T07:57:01.385Z,72.10
2019-03-22T07:59:30.885Z,71.60
2019-03-22T08:02:00.581Z,71.70
2019-03-22T08:04:30.162Z,70.90
2019-03-22T08:07:01.321Z,70.70
2019-03-22T08:09:31.528Z,70.00
2019-03-22T08:12:01.943Z,69.70
2019-03-22T08:14:31.406Z,69.70
2019-03-22T08:17:01.618Z,69.10
2019-03-22T08:19:31.677Z,67.30
2019-03-22T08:22:01.225Z,66.80
2019-03-22T08:24:33.479Z,67.10
2019-03-22T08:27:03.086Z,66.60
2019-03-22T08:29:32.721Z,65.90
2019-03-22T08:32:05.412Z,64.80
2019-03-22T08:34:35.136Z,64.20
2019-03-22T08:37:04.922Z,63.80
2019-03-22T08:39:34.611Z,63.60
2019-03-22T08:42:04.233Z,63.10
2019-03-22T08:44:34.068Z,63.20
2019-03-22T08:47:03.931Z,62.50
2019-03-22T08:49:52.828Z,62.20
2019-03-22T08:52:22.442Z,61.70
2019-03-22T08:54:52.378Z,61.40
2019-03-22T08:57:24.801Z,61.10
2019-03-22T08:59:54.082Z,60.80
2019-03-22T09:02:23.650Z,60.60
2019-03-22T09:04:53.247Z,59.30
2019-03-22T09:07:24.451Z,59.30
2019-03-22T09:09:54.170Z,59.10
2019-03-22T09:12:23.709Z,59.10
2019-03-22T09:14:53.361Z,59.40
2019-03-22T09:17:23.314Z,59.00
2019-03-22T09:19:52.946Z,57.40
2019-03-22T09:22:23.568Z,56.50
2019-03-22T09:24:53.062Z,55.90
2019-03-22T09:27:22.949Z,55.60
2019-03-22T09:29:52.628Z,55.60
2019-03-22T09:32:22.262Z,55.10
2019-03-22T09:34:51.827Z,54.60
2019-03-22T09:37:21.397Z,53.30
2019-03-22T09:39:52.771Z,53.10
2019-03-22T09:42:22.439Z,50.90
2019-03-22T09:44:52.116Z,50.80
2019-03-22T09:47:21.737Z,50.80
2019-03-22T09:49:51.448Z,50.40
2019-03-22T09:52:21.598Z,50.50
2019-03-22T09:54:51.101Z,50.30
2019-03-22T09:57:20.728Z,49.20
2019-03-22T09:59:50.353Z,49.20
2019-03-22T10:02:20.260Z,47.90
2019-03-22T10:04:50.036Z,49.30
2019-03-22T10:07:19.533Z,47.90
2019-03-22T10:09:49.124Z,47.80
2019-03-22T10:12:18.745Z,47.50
2019-03-22T10:14:48.738Z,45.70
2019-03-22T10:17:18.385Z,45.80
2019-03-22T10:19:48.018Z,45.50
2019-03-22T10:22:17.535Z,45.90
2019-03-22T10:24:48.209Z,44.80
2019-03-22T10:27:17.801Z,44.20
2019-03-22T10:30:08.326Z,40.50
2019-03-22T10:32:38.027Z,40.50
2019-03-22T10:35:08.027Z,38.60
2019-03-22T10:37:37.608Z,38.50
2019-03-22T10:40:08.341Z,38.80
2019-03-22T10:42:38.137Z,38.60
2019-03-22T10:45:08.789Z,38.10
2019-03-22T10:47:38.312Z,37.30
2019-03-22T10:50:09.432Z,37.70
2019-03-22T10:52:39.120Z,37.50
2019-03-22T10:55:28.387Z,38.10
2019-03-22T10:57:40.485Z,35.70
2019-03-22T11:00:15.949Z,35.30
2019-03-22T11:02:47.500Z,34.70
2019-03-22T11:05:17.352Z,35.00
2019-03-22T11:07:47.457Z,34.50
2019-03-22T11:10:17.073Z,31.90
2019-03-22T11:12:47.063Z,32.90
2019-03-22T11:15:16.715Z,31.10
2019-03-22T11:17:46.233Z,31.60
2019-03-22T11:20:17.668Z,31.40
2019-03-22T11:22:47.316Z,31.40
2019-03-22T11:25:16.888Z,32.40
2019-03-22T11:27:46.977Z,32.80
2019-03-22T11:30:18.041Z,32.30
2019-03-22T11:32:48.123Z,31.60
2019-03-22T11:35:17.805Z,31.20
2019-03-22T11:37:47.276Z,30.80
2019-03-22T11:40:17.698Z,31.00
2019-03-22T11:42:47.396Z,32.40
2019-03-22T11:45:25.922Z,30.30
2019-03-22T11:47:55.584Z,29.10
2019-03-22T11:50:25.184Z,28.40
2019-03-22T11:52:55.065Z,27.60
2019-03-22T11:55:24.652Z,25.50
2019-03-22T11:57:54.366Z,26.20
2019-03-22T12:00:25.709Z,26.20
2019-03-22T12:02:55.310Z,25.90
2019-03-22T12:05:25.065Z,25.90
2019-03-22T12:07:55.372Z,25.50
2019-03-22T12:10:44.617Z,25.50
2019-03-22T12:13:14.332Z,24.60
2019-03-22T12:15:44.141Z,24.80
2019-03-22T12:18:13.749Z,24.70
2019-03-22T12:20:43.509Z,24.30
2019-03-22T12:23:12.962Z,24.80
2019-03-22T12:25:42.755Z,25.00
2019-03-22T12:28:12.497Z,24.50
2019-03-22T12:30:42.288Z,24.50
2019-03-22T12:33:11.809Z,24.60
2019-03-22T12:35:42.612Z,23.10
2019-03-22T12:38:12.310Z,23.00
2019-03-22T12:40:42.410Z,22.50
2019-03-22T12:43:12.120Z,22.90
2019-03-22T12:45:42.093Z,23.30
2019-03-22T12:48:11.606Z,23.60
2019-03-22T12:50:41.142Z,23.20
2019-03-22T12:53:10.668Z,22.50
2019-03-22T12:55:40.531Z,22.50
2019-03-22T12:58:10.001Z,22.30
2019-03-22T13:00:39.819Z,22.50
2019-03-22T13:03:09.325Z,21.90
2019-03-22T13:05:39.268Z,22.40
2019-03-22T13:08:09.178Z,22.40
2019-03-22T13:10:38.693Z,22.00
2019-03-22T13:13:08.170Z,22.30
2019-03-22T13:15:37.771Z,21.30
2019-03-22T13:18:07.331Z,21.10
2019-03-22T13:20:37.192Z,22.60
2019-03-22T13:23:06.775Z,21.60
2019-03-22T13:25:36.303Z,21.30
2019-03-22T13:28:05.912Z,21.40
2019-03-22T13:30:36.778Z,20.40
2019-03-22T13:33:07.553Z,21.30
2019-03-22T13:35:37.392Z,21.60
2019-03-22T13:38:06.839Z,20.90
2019-03-22T13:40:36.494Z,19.70
2019-03-22T13:43:10.309Z,20.70
2019-03-22T13:45:44.681Z,21.90
2019-03-22T13:48:14.316Z,21.30
2019-03-22T13:50:43.977Z,20.80
2019-03-22T13:53:13.964Z,20.90
2019-03-22T13:55:43.589Z,20.60
2019-03-22T13:58:13.498Z,21.20
2019-03-22T14:00:43.389Z,20.20
2019-03-22T14:03:13.011Z,20.30
2019-03-22T14:05:42.529Z,20.50
2019-03-22T14:08:11.989Z,20.50
2019-03-22T14:10:41.528Z,20.80
2019-03-22T14:13:11.360Z,20.70
2019-03-22T14:15:46.334Z,20.60
2019-03-22T14:18:16.396Z,20.60
2019-03-22T14:20:45.901Z,20.80
2019-03-22T14:23:15.420Z,20.60
2019-03-22T14:26:04.307Z,19.80
2019-03-22T14:28:53.176Z,19.90
2019-03-22T14:31:22.757Z,20.50
2019-03-22T14:33:52.265Z,19.80
2019-03-22T14:36:21.802Z,21.00
2019-03-22T14:38:51.607Z,20.50
2019-03-22T14:41:21.125Z,20.40
2019-03-22T14:43:50.569Z,20.60
2019-03-22T14:46:20.197Z,19.80
2019-03-22T14:48:49.644Z,20.80
2019-03-22T14:51:19.246Z,20.90
2019-03-22T14:53:48.788Z,20.70
2019-03-22T14:56:18.373Z,20.80
2019-03-22T14:58:47.975Z,20.40
2019-03-22T15:01:17.579Z,21.50
2019-03-22T15:03:47.103Z,22.00
2019-03-22T15:06:17.000Z,21.30
2019-03-22T15:08:46.908Z,21.20
2019-03-22T15:11:16.432Z,20.90
2019-03-22T15:13:47.971Z,21.50
2019-03-22T15:16:34.733Z,21.10
2019-03-22T15:19:14.954Z,21.50
2019-03-22T15:22:08.210Z,20.90
2019-03-22T15:24:48.373Z,21.00
2019-03-22T15:27:36.166Z,21.30
2019-03-22T15:30:27.990Z,21.00
2019-03-22T15:32:59.315Z,21.70
2019-03-22T15:35:46.838Z,21.50
2019-03-22T15:38:34.443Z,21.80
2019-03-22T15:41:04.200Z,21.10
2019-03-22T15:43:33.718Z,22.90
2019-03-22T15:46:03.261Z,22.30
2019-03-22T15:48:32.780Z,22.20
2019-03-22T15:51:02.649Z,22.60
2019-03-22T15:53:32.632Z,23.00
2019-03-22T15:56:02.149Z,22.50
2019-03-22T15:58:31.599Z,23.00
2019-03-22T16:01:01.217Z,23.90
2019-03-22T16:03:32.470Z,24.00
2019-03-22T16:06:02.541Z,23.00
2019-03-22T16:08:32.117Z,23.40
2019-03-22T16:11:01.684Z,23.60
2019-03-22T16:13:31.133Z,24.00
2019-03-22T16:16:01.170Z,23.70
2019-03-22T16:18:31.020Z,23.50
2019-03-22T16:21:00.570Z,23.60
2019-03-22T16:23:30.066Z,23.40
2019-03-22T16:25:59.658Z,24.00
2019-03-22T16:28:29.180Z,24.20
2019-03-22T16:30:59.014Z,24.30
2019-03-22T16:33:29.345Z,24.50
2019-03-22T16:35:58.861Z,25.60
2019-03-22T16:38:28.859Z,24.60
2019-03-22T16:41:01.149Z,25.40
2019-03-22T16:43:31.045Z,25.50
2019-03-22T16:46:00.594Z,25.50
2019-03-22T16:48:30.481Z,25.20
2019-03-22T16:50:59.993Z,26.40
2019-03-22T16:53:31.301Z,26.80
2019-03-22T16:56:00.748Z,28.30
2019-03-22T16:58:30.255Z,29.00
2019-03-22T17:00:59.802Z,29.80
2019-03-22T17:03:29.533Z,30.00
2019-03-22T17:05:59.008Z,30.20
2019-03-22T17:08:28.485Z,30.20
2019-03-22T17:10:58.001Z,31.00
2019-03-22T17:13:27.579Z,31.20
2019-03-22T17:15:57.593Z,31.70
2019-03-22T17:18:27.050Z,32.10
2019-03-22T17:20:56.580Z,32.40
2019-03-22T17:23:26.199Z,32.60
2019-03-22T17:25:55.713Z,32.90
2019-03-22T17:28:25.165Z,33.20
2019-03-22T17:30:54.784Z,33.30
2019-03-22T17:33:24.380Z,33.80
2019-03-22T17:35:53.894Z,33.70
2019-03-22T17:38:23.838Z,34.10
2019-03-22T17:40:53.354Z,34.50
2019-03-22T17:43:23.035Z,34.40
2019-03-22T17:45:52.560Z,35.60
2019-03-22T17:48:22.264Z,35.80
2019-03-22T17:50:51.857Z,36.50
2019-03-22T17:53:21.778Z,36.60
2019-03-22T17:55:51.424Z,36.90
2019-03-22T17:58:21.047Z,37.20
2019-03-22T18:00:51.085Z,37.10
2019-03-22T18:03:20.579Z,37.70
2019-03-22T18:05:50.325Z,37.50
2019-03-22T18:08:19.815Z,37.60
2019-03-22T18:10:49.756Z,38.00
2019-03-22T18:13:19.353Z,38.10
2019-03-22T18:15:48.834Z,38.40
2019-03-22T18:18:18.350Z,38.60
2019-03-22T18:20:48.174Z,39.70
2019-03-22T18:23:18.128Z,39.90
2019-03-22T18:25:47.647Z,40.10
2019-03-22T18:28:17.157Z,40.50
2019-03-22T18:30:46.629Z,40.60
2019-03-22T18:33:16.244Z,40.30
2019-03-22T18:35:47.147Z,40.70
2019-03-22T18:38:16.701Z,41.00
2019-03-22T18:40:46.561Z,41.40
2019-03-22T18:43:16.004Z,41.90
2019-03-22T18:45:45.673Z,42.60
2019-03-22T18:48:15.647Z,42.60
2019-03-22T18:50:45.305Z,43.10
2019-03-22T18:53:14.894Z,43.60
2019-03-22T18:55:44.717Z,43.20
2019-03-22T18:58:15.106Z,43.20
2019-03-22T19:00:44.675Z,43.50
2019-03-22T19:03:14.562Z,43.50
2019-03-22T19:05:44.083Z,43.50
2019-03-22T19:08:13.749Z,43.50
2019-03-22T19:10:43.265Z,43.80
2019-03-22T19:13:12.785Z,45.00
2019-03-22T19:15:42.481Z,45.30
2019-03-22T19:18:12.304Z,45.00
2019-03-22T19:20:41.817Z,45.30
2019-03-22T19:23:11.621Z,45.40
2019-03-22T19:25:41.145Z,45.40
2019-03-22T19:28:10.653Z,45.20
2019-03-22T19:30:40.175Z,45.00
2019-03-22T19:33:09.700Z,45.80
2019-03-22T19:35:39.146Z,45.90
2019-03-22T19:38:09.072Z,45.80
2019-03-22T19:40:38.661Z,45.80
2019-03-22T19:43:08.100Z,45.70
2019-03-22T19:45:37.596Z,45.70
2019-03-22T19:48:07.596Z,46.00
2019-03-22T19:50:37.197Z,46.10
2019-03-22T19:53:06.889Z,46.10
2019-03-22T19:55:36.411Z,47.30
2019-03-22T19:58:06.426Z,47.00
2019-03-22T20:00:35.971Z,47.20
2019-03-22T20:03:05.566Z,47.40
2019-03-22T20:05:35.109Z,47.20
2019-03-22T20:08:04.811Z,46.80
2019-03-22T20:10:34.698Z,47.60
2019-03-22T20:13:04.149Z,46.90
2019-03-22T20:15:33.929Z,46.80
2019-03-22T20:18:03.452Z,47.10
2019-03-22T20:20:32.966Z,47.40
2019-03-22T20:23:02.510Z,47.60
2019-03-22T20:25:32.022Z,47.40
2019-03-22T20:28:01.528Z,47.60
2019-03-22T20:30:31.009Z,48.00
2019-03-22T20:33:00.824Z,48.00
2019-03-22T20:35:30.746Z,48.30
2019-03-22T20:38:02.003Z,48.60
2019-03-22T20:40:31.567Z,49.30
2019-03-22T20:43:01.087Z,49.60
2019-03-22T20:45:30.770Z,49.60
2019-03-22T20:48:00.712Z,50.70
2019-03-22T20:50:35.742Z,49.60
2019-03-22T20:53:01.454Z,49.30
2019-03-22T20:55:31.045Z,49.40
2019-03-22T20:58:01.693Z,49.60
2019-03-22T21:00:31.240Z,49.20
2019-03-22T21:03:01.010Z,49.10
2019-03-22T21:05:30.921Z,49.40
2019-03-22T21:08:00.734Z,49.30
2019-03-22T21:10:30.280Z,49.70
2019-03-22T21:13:00.161Z,50.30
2019-03-22T21:15:29.641Z,50.20
2019-03-22T21:17:59.155Z,50.60
2019-03-22T21:20:28.673Z,50.40
2019-03-22T21:22:58.273Z,50.10
2019-03-22T21:25:27.718Z,50.60
2019-03-22T21:27:57.609Z,50.30
2019-03-22T21:30:27.232Z,50.90
2019-03-22T21:32:57.129Z,50.60
2019-03-22T21:35:36.704Z,50.90
2019-03-22T21:37:57.888Z,50.90
2019-03-22T21:40:27.396Z,51.30
2019-03-22T21:42:56.836Z,51.50
2019-03-22T21:45:26.633Z,51.70
2019-03-22T21:47:56.178Z,51.60
2019-03-22T21:50:25.689Z,51.50
2019-03-22T21:52:55.501Z,51.20
2019-03-22T21:55:24.941Z,51.60
2019-03-22T21:57:54.461Z,52.90
2019-03-22T22:00:24.017Z,53.10
2019-03-22T22:02:53.479Z,53.10
2019-03-22T22:05:22.986Z,53.10
2019-03-22T22:07:52.854Z,53.00
2019-03-22T22:10:22.428Z,52.90
2019-03-22T22:12:52.153Z,52.80
2019-03-22T22:15:21.777Z,53.10
2019-03-22T22:17:51.316Z,53.30
2019-03-22T22:20:28.373Z,54.90
2019-03-22T22:22:52.064Z,55.10
2019-03-22T22:25:21.925Z,55.60
2019-03-22T22:27:53.272Z,55.80
2019-03-22T22:30:23.057Z,55.30
2019-03-22T22:32:52.518Z,55.40
2019-03-22T22:35:22.052Z,55.60
2019-03-22T22:37:51.531Z,55.40
2019-03-22T22:40:21.417Z,55.20
2019-03-22T22:42:51.231Z,55.50
2019-03-22T22:45:21.137Z,55.90
2019-03-22T22:47:50.669Z,56.90
2019-03-22T22:50:20.684Z,55.70
2019-03-22T22:52:50.529Z,56.00
2019-03-22T22:55:20.050Z,56.00
2019-03-22T22:57:49.579Z,56.10
2019-03-22T23:00:19.525Z,55.50
2019-03-22T23:02:49.013Z,55.30
2019-03-22T23:05:18.537Z,55.60
2019-03-22T23:07:48.113Z,56.30
2019-03-22T23:10:17.787Z,56.70
2019-03-22T23:12:47.388Z,56.70
2019-03-22T23:15:17.107Z,56.80
2019-03-22T23:17:46.842Z,57.00
2019-03-22T23:20:16.434Z,56.80
2019-03-22T23:22:45.961Z,57.10
2019-03-22T23:25:15.769Z,57.30
2019-03-22T23:27:45.406Z,57.90
2019-03-22T23:30:15.113Z,57.70
2019-03-22T23:32:44.888Z,57.90
2019-03-22T23:35:14.702Z,58.30
2019-03-22T23:37:44.469Z,58.00
2019-03-22T23:40:14.070Z,58.30
2019-03-22T23:42:44.716Z,58.50
2019-03-22T23:45:14.336Z,58.30
2019-03-22T23:47:43.961Z,58.10
2019-03-22T23:50:32.774Z,58.00
2019-03-22T23:53:02.441Z,58.00
2019-03-22T23:55:31.972Z,58.30
2019-03-22T23:58:01.849Z,58.40
